VOE2345 LEBL-LFRB
Flight info
| Callsign | VOE2345 |
|---|---|
| Flight time | 1h 27m |
| Altitude | 32000 |
| Route | NATPI DCT EVNAM/N0443F340 DCT AGN DCT SECHE DCT UVELI DCT CNA DCT MANAK UY110 TIRAV UN490 TERPO UM616 KORER DCT ERCOZ |
| Aircraft | A320/M-SDE3FGHIRWY/LB1 |
Departure
| Time | 2026-05-05 15:34 |
|---|---|
| Airport | Josep Tarradellas Barcelona-El Prat Airport (LEBL) |
Arrival
| Time | 2026-05-05 17:01 |
|---|---|
| Airport | Brest Bretagne airport (LFRB) |
| Time | Latitude | Longitude | Altitude | Speed | Heading |
|---|---|---|---|---|---|
| 2026-05-05 14:53 | 41.30311 | 2.08240 | 21 ft | 0 kts | 13° |
| 2026-05-05 15:23 | 41.30309 | 2.08239 | 20 ft | 2 kts | 13° |
| 2026-05-05 15:23 | 41.30283 | 2.08232 | 20 ft | 4 kts | 8° |
| 2026-05-05 15:23 | 41.30257 | 2.08229 | 23 ft | 3 kts | 1° |
| 2026-05-05 15:24 | 41.30250 | 2.08229 | 23 ft | 0 kts | 1° |
| 2026-05-05 15:24 | 41.30236 | 2.08230 | 22 ft | 3 kts | 334° |
| 2026-05-05 15:24 | 41.30225 | 2.08239 | 21 ft | 0 kts | 314° |
| 2026-05-05 15:27 | 41.30226 | 2.08237 | 21 ft | 1 kts | 303° |
| 2026-05-05 15:27 | 41.30213 | 2.08196 | 19 ft | 8 kts | 227° |
| 2026-05-05 15:27 | 41.30163 | 2.08191 | 19 ft | 8 kts | 161° |
| 2026-05-05 15:28 | 41.30111 | 2.08222 | 18 ft | 8 kts | 155° |
| 2026-05-05 15:28 | 41.30072 | 2.08246 | 19 ft | 6 kts | 155° |
| 2026-05-05 15:28 | 41.30035 | 2.08269 | 18 ft | 7 kts | 155° |
| 2026-05-05 15:28 | 41.29982 | 2.08301 | 22 ft | 9 kts | 156° |
| 2026-05-05 15:29 | 41.29927 | 2.08333 | 23 ft | 8 kts | 156° |
| 2026-05-05 15:29 | 41.29858 | 2.08374 | 23 ft | 16 kts | 155° |
| 2026-05-05 15:29 | 41.29733 | 2.08454 | 18 ft | 22 kts | 155° |
| 2026-05-05 15:29 | 41.29590 | 2.08536 | 19 ft | 22 kts | 156° |
| 2026-05-05 15:30 | 41.29442 | 2.08629 | 16 ft | 24 kts | 155° |
| 2026-05-05 15:30 | 41.29292 | 2.08717 | 18 ft | 23 kts | 156° |
| 2026-05-05 15:30 | 41.29139 | 2.08809 | 16 ft | 25 kts | 156° |
| 2026-05-05 15:30 | 41.29000 | 2.08892 | 15 ft | 19 kts | 155° |
| 2026-05-05 15:31 | 41.28953 | 2.08977 | 16 ft | 12 kts | 86° |
| 2026-05-05 15:31 | 41.28985 | 2.09085 | 17 ft | 13 kts | 66° |
| 2026-05-05 15:31 | 41.29024 | 2.09198 | 18 ft | 14 kts | 65° |
| 2026-05-05 15:31 | 41.29065 | 2.09322 | 19 ft | 15 kts | 66° |
| 2026-05-05 15:32 | 41.29110 | 2.09458 | 18 ft | 17 kts | 65° |
| 2026-05-05 15:32 | 41.29163 | 2.09610 | 19 ft | 19 kts | 65° |
| 2026-05-05 15:32 | 41.29220 | 2.09776 | 17 ft | 20 kts | 65° |
| 2026-05-05 15:32 | 41.29277 | 2.09943 | 19 ft | 16 kts | 74° |
| 2026-05-05 15:33 | 41.29258 | 2.10083 | 15 ft | 16 kts | 108° |
| 2026-05-05 15:33 | 41.29224 | 2.10210 | 15 ft | 11 kts | 150° |
| 2026-05-05 15:33 | 41.29165 | 2.10164 | 17 ft | 16 kts | 244° |
| 2026-05-05 15:33 | 41.29017 | 2.09736 | 19 ft | 87 kts | 246° |
| 2026-05-05 15:34 | 41.28685 | 2.08762 | 20 ft | 145 kts | 245° |
| 2026-05-05 15:34 | 41.28224 | 2.07385 | 309 ft | 168 kts | 243° |
| 2026-05-05 15:34 | 41.27496 | 2.06221 | 972 ft | 167 kts | 205° |
| 2026-05-05 15:34 | 41.26379 | 2.05846 | 1625 ft | 172 kts | 192° |
| 2026-05-05 15:35 | 41.25127 | 2.05531 | 1979 ft | 194 kts | 192° |
| 2026-05-05 15:35 | 41.23733 | 2.05164 | 2403 ft | 211 kts | 192° |
| 2026-05-05 15:35 | 41.22285 | 2.04780 | 3164 ft | 214 kts | 194° |
| 2026-05-05 15:35 | 41.20812 | 2.04390 | 3936 ft | 217 kts | 193° |
| 2026-05-05 15:36 | 41.19346 | 2.03910 | 4712 ft | 218 kts | 206° |
| 2026-05-05 15:36 | 41.18124 | 2.02707 | 5339 ft | 225 kts | 232° |
| 2026-05-05 15:36 | 41.17157 | 2.01031 | 6057 ft | 230 kts | 233° |
| 2026-05-05 15:36 | 41.16176 | 1.99339 | 6830 ft | 232 kts | 233° |
| 2026-05-05 15:37 | 41.15184 | 1.97641 | 7629 ft | 234 kts | 232° |
| 2026-05-05 15:37 | 41.14182 | 1.95933 | 8440 ft | 235 kts | 232° |
| 2026-05-05 15:37 | 41.13316 | 1.94106 | 9241 ft | 238 kts | 246° |
| 2026-05-05 15:37 | 41.12783 | 1.91971 | 9868 ft | 247 kts | 252° |
| 2026-05-05 15:38 | 41.12278 | 1.89770 | 10573 ft | 251 kts | 252° |
| 2026-05-05 15:38 | 41.11772 | 1.87552 | 11309 ft | 253 kts | 253° |
| 2026-05-05 15:38 | 41.11551 | 1.85219 | 12034 ft | 259 kts | 270° |
| 2026-05-05 15:38 | 41.11877 | 1.82792 | 12410 ft | 282 kts | 286° |
| 2026-05-05 15:39 | 41.12621 | 1.80260 | 12602 ft | 306 kts | 288° |
| 2026-05-05 15:39 | 41.13543 | 1.77595 | 12772 ft | 332 kts | 299° |
| 2026-05-05 15:39 | 41.15105 | 1.75235 | 13218 ft | 350 kts | 317° |
| 2026-05-05 15:39 | 41.17189 | 1.73471 | 13841 ft | 360 kts | 327° |
| 2026-05-05 15:40 | 41.19386 | 1.71838 | 14458 ft | 363 kts | 327° |
| 2026-05-05 15:40 | 41.21609 | 1.70206 | 15104 ft | 367 kts | 328° |
| 2026-05-05 15:40 | 41.23903 | 1.68687 | 15747 ft | 371 kts | 330° |
| 2026-05-05 15:40 | 41.26262 | 1.67255 | 16380 ft | 374 kts | 331° |
| 2026-05-05 15:41 | 41.28659 | 1.65859 | 17000 ft | 378 kts | 332° |
| 2026-05-05 15:41 | 41.31081 | 1.64458 | 17622 ft | 382 kts | 331° |
| 2026-05-05 15:41 | 41.33523 | 1.63033 | 18219 ft | 385 kts | 331° |
| 2026-05-05 15:41 | 41.35979 | 1.61576 | 18739 ft | 388 kts | 330° |
| 2026-05-05 15:42 | 41.38449 | 1.60091 | 19268 ft | 391 kts | 329° |
| 2026-05-05 15:42 | 41.40905 | 1.58600 | 19793 ft | 395 kts | 329° |
| 2026-05-05 15:42 | 41.43442 | 1.57051 | 20331 ft | 398 kts | 329° |
| 2026-05-05 15:42 | 41.45969 | 1.55506 | 20847 ft | 401 kts | 329° |
| 2026-05-05 15:43 | 41.48516 | 1.53950 | 21344 ft | 405 kts | 328° |
| 2026-05-05 15:43 | 41.51053 | 1.52399 | 21861 ft | 408 kts | 328° |
| 2026-05-05 15:43 | 41.53668 | 1.50856 | 22355 ft | 415 kts | 332° |
| 2026-05-05 15:43 | 41.56477 | 1.49768 | 22831 ft | 426 kts | 342° |
| 2026-05-05 15:44 | 41.59425 | 1.49100 | 23298 ft | 432 kts | 344° |
| 2026-05-05 15:44 | 41.62399 | 1.48447 | 23703 ft | 436 kts | 344° |
| 2026-05-05 15:44 | 41.65410 | 1.47789 | 24099 ft | 439 kts | 343° |
| 2026-05-05 15:44 | 41.68431 | 1.47126 | 24486 ft | 442 kts | 343° |
| 2026-05-05 15:45 | 41.71483 | 1.46452 | 24835 ft | 446 kts | 343° |
| 2026-05-05 15:45 | 41.74550 | 1.45767 | 25212 ft | 448 kts | 343° |
| 2026-05-05 15:45 | 41.77637 | 1.45076 | 25587 ft | 451 kts | 343° |
| 2026-05-05 15:45 | 41.80740 | 1.44380 | 25948 ft | 453 kts | 343° |
| 2026-05-05 15:46 | 41.83859 | 1.43679 | 26309 ft | 456 kts | 343° |
| 2026-05-05 15:46 | 41.87001 | 1.42972 | 26664 ft | 459 kts | 343° |
| 2026-05-05 15:46 | 41.89085 | 1.42503 | 26902 ft | 461 kts | 342° |
| 2026-05-05 15:46 | 41.92262 | 1.41790 | 27260 ft | 463 kts | 342° |
| 2026-05-05 15:47 | 41.95443 | 1.41079 | 27602 ft | 466 kts | 342° |
| 2026-05-05 15:47 | 41.98650 | 1.40364 | 27945 ft | 468 kts | 342° |
| 2026-05-05 15:47 | 42.01867 | 1.39646 | 28286 ft | 470 kts | 342° |
| 2026-05-05 15:47 | 42.05102 | 1.38921 | 28607 ft | 472 kts | 342° |
| 2026-05-05 15:48 | 42.08352 | 1.38189 | 28925 ft | 474 kts | 342° |
| 2026-05-05 15:48 | 42.11612 | 1.37450 | 29247 ft | 477 kts | 342° |
| 2026-05-05 15:48 | 42.14898 | 1.36703 | 29552 ft | 479 kts | 342° |
| 2026-05-05 15:48 | 42.18192 | 1.35953 | 29815 ft | 482 kts | 342° |
| 2026-05-05 15:49 | 42.21506 | 1.35205 | 30106 ft | 484 kts | 342° |
| 2026-05-05 15:49 | 42.24828 | 1.34454 | 30368 ft | 485 kts | 343° |
| 2026-05-05 15:49 | 42.28160 | 1.33696 | 30588 ft | 486 kts | 343° |
| 2026-05-05 15:49 | 42.31496 | 1.32939 | 30792 ft | 486 kts | 343° |
| 2026-05-05 15:50 | 42.34838 | 1.32181 | 30933 ft | 489 kts | 343° |
| 2026-05-05 15:50 | 42.38188 | 1.31417 | 31212 ft | 488 kts | 343° |
| 2026-05-05 15:50 | 42.41543 | 1.30649 | 31468 ft | 488 kts | 343° |
| 2026-05-05 15:50 | 42.44884 | 1.29881 | 31760 ft | 487 kts | 343° |
| 2026-05-05 15:51 | 42.48186 | 1.29126 | 31929 ft | 487 kts | 343° |
| 2026-05-05 15:51 | 42.54852 | 1.27612 | 31951 ft | 485 kts | 344° |
| 2026-05-05 15:52 | 42.61515 | 1.26088 | 31939 ft | 486 kts | 344° |
| 2026-05-05 15:52 | 42.68179 | 1.24559 | 31933 ft | 485 kts | 344° |
| 2026-05-05 15:53 | 42.74840 | 1.23099 | 31944 ft | 486 kts | 347° |
| 2026-05-05 15:53 | 42.81581 | 1.22116 | 31944 ft | 489 kts | 349° |
| 2026-05-05 15:54 | 42.88358 | 1.21354 | 31954 ft | 488 kts | 349° |
| 2026-05-05 15:54 | 42.95114 | 1.20516 | 31960 ft | 486 kts | 349° |
| 2026-05-05 15:55 | 43.01839 | 1.19572 | 31965 ft | 485 kts | 348° |
| 2026-05-05 15:55 | 43.08549 | 1.18608 | 31964 ft | 484 kts | 349° |
| 2026-05-05 15:56 | 43.15247 | 1.17666 | 31964 ft | 484 kts | 349° |
| 2026-05-05 15:56 | 43.21859 | 1.16751 | 31962 ft | 483 kts | 349° |
| 2026-05-05 15:57 | 43.28445 | 1.15840 | 31959 ft | 483 kts | 349° |
| 2026-05-05 15:57 | 43.35137 | 1.14915 | 32334 ft | 482 kts | 349° |
| 2026-05-05 15:57 | 43.38350 | 1.14468 | 32645 ft | 481 kts | 349° |
| 2026-05-05 15:58 | 43.41675 | 1.14005 | 32951 ft | 480 kts | 350° |
| 2026-05-05 15:58 | 43.44955 | 1.13544 | 33247 ft | 479 kts | 350° |
| 2026-05-05 15:58 | 43.48313 | 1.13070 | 33547 ft | 479 kts | 350° |
| 2026-05-05 15:58 | 43.51630 | 1.12602 | 33837 ft | 478 kts | 350° |
| 2026-05-05 15:59 | 43.54892 | 1.12145 | 33951 ft | 476 kts | 350° |
| 2026-05-05 15:59 | 43.61220 | 1.10160 | 33969 ft | 460 kts | 333° |
| 2026-05-05 16:00 | 43.66775 | 1.05992 | 33966 ft | 453 kts | 323° |
| 2026-05-05 16:00 | 43.72133 | 1.01457 | 33963 ft | 453 kts | 323° |
| 2026-05-05 16:01 | 43.77514 | 0.96905 | 33960 ft | 453 kts | 323° |
| 2026-05-05 16:01 | 43.82887 | 0.92331 | 33961 ft | 453 kts | 324° |
| 2026-05-05 16:02 | 43.88260 | 0.87767 | 33957 ft | 454 kts | 326° |
| 2026-05-05 16:02 | 43.93907 | 0.84000 | 33963 ft | 458 kts | 331° |
| 2026-05-05 16:03 | 43.99688 | 0.80284 | 33956 ft | 458 kts | 331° |
| 2026-05-05 16:03 | 44.05467 | 0.76552 | 33954 ft | 458 kts | 331° |
| 2026-05-05 16:04 | 44.11238 | 0.72809 | 33949 ft | 458 kts | 331° |
| 2026-05-05 16:04 | 44.17011 | 0.69065 | 33946 ft | 458 kts | 331° |
| 2026-05-05 16:05 | 44.22781 | 0.65313 | 33948 ft | 458 kts | 331° |
| 2026-05-05 16:05 | 44.28547 | 0.61555 | 33951 ft | 457 kts | 331° |
| 2026-05-05 16:06 | 44.34319 | 0.57794 | 33952 ft | 457 kts | 331° |
| 2026-05-05 16:06 | 44.40077 | 0.54024 | 33963 ft | 457 kts | 332° |
| 2026-05-05 16:07 | 44.45836 | 0.50242 | 33956 ft | 457 kts | 331° |
| 2026-05-05 16:07 | 44.51591 | 0.46431 | 33948 ft | 457 kts | 331° |
| 2026-05-05 16:08 | 44.57296 | 0.42628 | 33946 ft | 457 kts | 331° |
| 2026-05-05 16:08 | 44.63047 | 0.38801 | 33943 ft | 458 kts | 332° |
| 2026-05-05 16:09 | 44.68801 | 0.34965 | 33948 ft | 458 kts | 332° |
| 2026-05-05 16:09 | 44.74557 | 0.31122 | 33944 ft | 458 kts | 332° |
| 2026-05-05 16:10 | 44.80307 | 0.27266 | 33949 ft | 458 kts | 332° |
| 2026-05-05 16:10 | 44.86051 | 0.23404 | 33944 ft | 458 kts | 332° |
| 2026-05-05 16:11 | 44.91804 | 0.19540 | 33947 ft | 458 kts | 332° |
| 2026-05-05 16:12 | 45.03302 | 0.11767 | 33946 ft | 458 kts | 332° |
| 2026-05-05 16:13 | 45.17680 | 0.02023 | 33934 ft | 458 kts | 332° |
| 2026-05-05 16:13 | 45.23391 | -0.01876 | 33933 ft | 459 kts | 332° |
| 2026-05-05 16:14 | 45.34828 | -0.09698 | 33923 ft | 459 kts | 332° |
| 2026-05-05 16:15 | 45.46350 | -0.17615 | 33909 ft | 460 kts | 332° |
| 2026-05-05 16:16 | 45.57886 | -0.25582 | 33913 ft | 461 kts | 333° |
| 2026-05-05 16:17 | 45.66447 | -0.31828 | 33903 ft | 459 kts | 324° |
| 2026-05-05 16:18 | 45.74000 | -0.40229 | 33905 ft | 459 kts | 320° |
| 2026-05-05 16:19 | 45.81528 | -0.48715 | 33908 ft | 459 kts | 320° |
| 2026-05-05 16:19 | 45.89021 | -0.57208 | 33887 ft | 460 kts | 320° |
| 2026-05-05 16:20 | 45.99057 | -0.68622 | 33886 ft | 460 kts | 320° |
| 2026-05-05 16:22 | 46.11585 | -0.82951 | 33901 ft | 460 kts | 320° |
| 2026-05-05 16:23 | 46.21593 | -0.94497 | 33911 ft | 460 kts | 320° |
| 2026-05-05 16:23 | 46.29105 | -1.03158 | 33914 ft | 460 kts | 320° |
| 2026-05-05 16:24 | 46.34099 | -1.08946 | 33910 ft | 460 kts | 320° |
| 2026-05-05 16:25 | 46.41587 | -1.17664 | 33905 ft | 460 kts | 320° |
| 2026-05-05 16:25 | 46.49039 | -1.26344 | 33894 ft | 460 kts | 320° |
| 2026-05-05 16:26 | 46.59023 | -1.37985 | 33889 ft | 461 kts | 324° |
| 2026-05-05 16:27 | 46.64638 | -1.42459 | 33887 ft | 461 kts | 334° |
| 2026-05-05 16:27 | 46.70415 | -1.46532 | 33887 ft | 462 kts | 334° |
| 2026-05-05 16:28 | 46.76186 | -1.50613 | 33883 ft | 462 kts | 333° |
| 2026-05-05 16:28 | 46.81974 | -1.54720 | 33883 ft | 462 kts | 333° |
| 2026-05-05 16:29 | 46.87769 | -1.58860 | 33883 ft | 463 kts | 333° |
| 2026-05-05 16:29 | 46.93562 | -1.63011 | 33888 ft | 462 kts | 333° |
| 2026-05-05 16:30 | 46.99310 | -1.67137 | 33887 ft | 462 kts | 333° |
| 2026-05-05 16:30 | 47.05092 | -1.71304 | 33885 ft | 462 kts | 333° |
| 2026-05-05 16:31 | 47.10833 | -1.75442 | 33889 ft | 462 kts | 333° |
| 2026-05-05 16:31 | 47.16608 | -1.79608 | 33888 ft | 462 kts | 333° |
| 2026-05-05 16:32 | 47.22371 | -1.83786 | 33881 ft | 462 kts | 334° |
| 2026-05-05 16:32 | 47.28114 | -1.87948 | 33911 ft | 462 kts | 334° |
| 2026-05-05 16:33 | 47.33781 | -1.92441 | 33909 ft | 462 kts | 324° |
| 2026-05-05 16:33 | 47.38426 | -1.98854 | 33915 ft | 460 kts | 310° |
| 2026-05-05 16:34 | 47.42635 | -2.05986 | 33914 ft | 460 kts | 310° |
| 2026-05-05 16:34 | 47.46869 | -2.13122 | 33918 ft | 460 kts | 310° |
| 2026-05-05 16:35 | 47.51056 | -2.20224 | 33917 ft | 460 kts | 310° |
| 2026-05-05 16:35 | 47.55263 | -2.27390 | 33921 ft | 460 kts | 310° |
| 2026-05-05 16:36 | 47.59462 | -2.34558 | 33928 ft | 460 kts | 310° |
| 2026-05-05 16:36 | 47.63627 | -2.41692 | 33929 ft | 460 kts | 310° |
| 2026-05-05 16:37 | 47.67814 | -2.48888 | 33922 ft | 460 kts | 310° |
| 2026-05-05 16:37 | 47.69918 | -2.52488 | 33702 ft | 460 kts | 310° |
| 2026-05-05 16:37 | 47.72037 | -2.56059 | 33290 ft | 457 kts | 310° |
| 2026-05-05 16:38 | 47.73437 | -2.58395 | 32888 ft | 455 kts | 311° |
| 2026-05-05 16:38 | 47.75538 | -2.61877 | 32312 ft | 451 kts | 311° |
| 2026-05-05 16:38 | 47.78301 | -2.66454 | 31562 ft | 447 kts | 311° |
| 2026-05-05 16:38 | 47.80369 | -2.69895 | 31005 ft | 444 kts | 311° |
| 2026-05-05 16:39 | 47.82419 | -2.73328 | 30451 ft | 442 kts | 311° |
| 2026-05-05 16:39 | 47.83767 | -2.75593 | 30092 ft | 440 kts | 311° |
| 2026-05-05 16:39 | 47.85797 | -2.79017 | 29484 ft | 438 kts | 311° |
| 2026-05-05 16:39 | 47.88447 | -2.83492 | 28785 ft | 432 kts | 311° |
| 2026-05-05 16:40 | 47.89790 | -2.85757 | 28425 ft | 429 kts | 311° |
| 2026-05-05 16:40 | 47.91757 | -2.89080 | 27892 ft | 425 kts | 311° |
| 2026-05-05 16:40 | 47.93702 | -2.92378 | 27385 ft | 422 kts | 311° |
| 2026-05-05 16:40 | 47.95606 | -2.95611 | 26887 ft | 418 kts | 311° |
| 2026-05-05 16:41 | 47.97522 | -2.98866 | 26392 ft | 415 kts | 311° |
| 2026-05-05 16:41 | 47.99423 | -3.02098 | 25912 ft | 412 kts | 311° |
| 2026-05-05 16:41 | 48.01312 | -3.05317 | 25434 ft | 409 kts | 311° |
| 2026-05-05 16:41 | 48.03184 | -3.08506 | 24966 ft | 406 kts | 311° |
| 2026-05-05 16:42 | 48.05020 | -3.11633 | 24502 ft | 404 kts | 311° |
| 2026-05-05 16:42 | 48.06867 | -3.14776 | 24025 ft | 401 kts | 310° |
| 2026-05-05 16:42 | 48.08709 | -3.17916 | 23566 ft | 399 kts | 310° |
| 2026-05-05 16:42 | 48.10532 | -3.21032 | 23046 ft | 397 kts | 310° |
| 2026-05-05 16:43 | 48.12340 | -3.24128 | 22580 ft | 393 kts | 310° |
| 2026-05-05 16:43 | 48.14126 | -3.27192 | 22116 ft | 390 kts | 310° |
| 2026-05-05 16:43 | 48.15905 | -3.30244 | 21636 ft | 387 kts | 310° |
| 2026-05-05 16:43 | 48.17678 | -3.33289 | 21156 ft | 385 kts | 310° |
| 2026-05-05 16:44 | 48.19431 | -3.36306 | 20672 ft | 383 kts | 310° |
| 2026-05-05 16:44 | 48.21156 | -3.39278 | 20193 ft | 381 kts | 310° |
| 2026-05-05 16:44 | 48.22896 | -3.42281 | 19707 ft | 380 kts | 310° |
| 2026-05-05 16:44 | 48.24630 | -3.45276 | 19219 ft | 378 kts | 310° |
| 2026-05-05 16:45 | 48.26356 | -3.48261 | 18730 ft | 377 kts | 310° |
| 2026-05-05 16:45 | 48.28072 | -3.51233 | 18235 ft | 376 kts | 310° |
| 2026-05-05 16:45 | 48.29785 | -3.54200 | 17720 ft | 374 kts | 310° |
| 2026-05-05 16:45 | 48.31463 | -3.57106 | 17239 ft | 371 kts | 310° |
| 2026-05-05 16:46 | 48.32989 | -3.60214 | 16772 ft | 368 kts | 298° |
| 2026-05-05 16:46 | 48.34015 | -3.63697 | 16301 ft | 364 kts | 287° |
| 2026-05-05 16:46 | 48.34778 | -3.67322 | 15829 ft | 363 kts | 286° |
| 2026-05-05 16:46 | 48.35539 | -3.70933 | 15371 ft | 361 kts | 286° |
| 2026-05-05 16:47 | 48.36298 | -3.74519 | 14915 ft | 358 kts | 287° |
| 2026-05-05 16:47 | 48.37044 | -3.78043 | 14453 ft | 357 kts | 287° |
| 2026-05-05 16:47 | 48.37798 | -3.81613 | 13985 ft | 356 kts | 287° |
| 2026-05-05 16:47 | 48.38544 | -3.85155 | 13493 ft | 354 kts | 287° |
| 2026-05-05 16:48 | 48.39284 | -3.88680 | 13008 ft | 351 kts | 287° |
| 2026-05-05 16:48 | 48.40018 | -3.92177 | 12549 ft | 348 kts | 287° |
| 2026-05-05 16:48 | 48.40733 | -3.95598 | 12085 ft | 345 kts | 287° |
| 2026-05-05 16:48 | 48.41450 | -3.99036 | 11607 ft | 342 kts | 287° |
| 2026-05-05 16:49 | 48.42161 | -4.02445 | 11129 ft | 340 kts | 287° |
| 2026-05-05 16:49 | 48.42868 | -4.05835 | 10658 ft | 337 kts | 287° |
| 2026-05-05 16:49 | 48.43569 | -4.09197 | 10227 ft | 335 kts | 287° |
| 2026-05-05 16:49 | 48.44250 | -4.12473 | 10103 ft | 323 kts | 287° |
| 2026-05-05 16:50 | 48.44913 | -4.15663 | 9978 ft | 312 kts | 287° |
| 2026-05-05 16:50 | 48.45548 | -4.18725 | 9845 ft | 301 kts | 287° |
| 2026-05-05 16:50 | 48.46159 | -4.21677 | 9542 ft | 297 kts | 287° |
| 2026-05-05 16:50 | 48.46770 | -4.24647 | 9158 ft | 295 kts | 287° |
| 2026-05-05 16:51 | 48.47377 | -4.27592 | 8692 ft | 290 kts | 287° |
| 2026-05-05 16:51 | 48.47974 | -4.30488 | 8001 ft | 288 kts | 287° |
| 2026-05-05 16:51 | 48.48568 | -4.33369 | 7329 ft | 285 kts | 287° |
| 2026-05-05 16:51 | 48.49149 | -4.36201 | 6682 ft | 281 kts | 287° |
| 2026-05-05 16:52 | 48.49713 | -4.38968 | 6077 ft | 276 kts | 287° |
| 2026-05-05 16:52 | 48.50276 | -4.41745 | 5545 ft | 277 kts | 287° |
| 2026-05-05 16:52 | 48.50831 | -4.44474 | 5380 ft | 265 kts | 287° |
| 2026-05-05 16:52 | 48.51357 | -4.47066 | 5280 ft | 252 kts | 287° |
| 2026-05-05 16:53 | 48.51853 | -4.49497 | 5177 ft | 239 kts | 287° |
| 2026-05-05 16:53 | 48.52321 | -4.51841 | 5074 ft | 230 kts | 283° |
| 2026-05-05 16:53 | 48.52419 | -4.54227 | 4973 ft | 228 kts | 263° |
| 2026-05-05 16:53 | 48.52009 | -4.56526 | 4837 ft | 228 kts | 251° |
| 2026-05-05 16:54 | 48.51486 | -4.58786 | 4704 ft | 227 kts | 251° |
| 2026-05-05 16:54 | 48.50971 | -4.61042 | 4565 ft | 227 kts | 251° |
| 2026-05-05 16:54 | 48.50459 | -4.63299 | 4435 ft | 227 kts | 251° |
| 2026-05-05 16:54 | 48.49955 | -4.65520 | 4309 ft | 223 kts | 251° |
| 2026-05-05 16:55 | 48.49461 | -4.67694 | 4178 ft | 214 kts | 251° |
| 2026-05-05 16:55 | 48.48752 | -4.69602 | 4055 ft | 206 kts | 226° |
| 2026-05-05 16:55 | 48.47594 | -4.70804 | 3911 ft | 203 kts | 200° |
| 2026-05-05 16:55 | 48.46212 | -4.71130 | 3687 ft | 201 kts | 178° |
| 2026-05-05 16:56 | 48.44825 | -4.71078 | 3477 ft | 202 kts | 178° |
| 2026-05-05 16:56 | 48.43418 | -4.71032 | 3271 ft | 202 kts | 178° |
| 2026-05-05 16:56 | 48.42030 | -4.70884 | 3179 ft | 200 kts | 162° |
| 2026-05-05 16:56 | 48.40868 | -4.69800 | 3089 ft | 197 kts | 128° |
| 2026-05-05 16:57 | 48.40304 | -4.67957 | 2922 ft | 194 kts | 97° |
| 2026-05-05 16:57 | 48.40102 | -4.65945 | 2763 ft | 194 kts | 97° |
| 2026-05-05 16:57 | 48.39945 | -4.64017 | 2630 ft | 183 kts | 88° |
| 2026-05-05 16:57 | 48.40154 | -4.62198 | 2470 ft | 171 kts | 69° |
| 2026-05-05 16:58 | 48.40537 | -4.60553 | 2324 ft | 162 kts | 69° |
| 2026-05-05 16:58 | 48.40893 | -4.58991 | 2201 ft | 153 kts | 69° |
| 2026-05-05 16:58 | 48.41231 | -4.57505 | 2094 ft | 148 kts | 69° |
| 2026-05-05 16:58 | 48.41561 | -4.56053 | 1985 ft | 145 kts | 69° |
| 2026-05-05 16:59 | 48.41891 | -4.54606 | 1797 ft | 145 kts | 69° |
| 2026-05-05 16:59 | 48.42231 | -4.53178 | 1564 ft | 144 kts | 68° |
| 2026-05-05 16:59 | 48.42566 | -4.51789 | 1418 ft | 144 kts | 70° |
| 2026-05-05 16:59 | 48.42850 | -4.50343 | 1192 ft | 144 kts | 69° |
| 2026-05-05 17:00 | 48.43161 | -4.48924 | 965 ft | 142 kts | 69° |
| 2026-05-05 17:00 | 48.43492 | -4.47518 | 774 ft | 142 kts | 67° |
| 2026-05-05 17:00 | 48.43820 | -4.46105 | 605 ft | 142 kts | 67° |
| 2026-05-05 17:00 | 48.44137 | -4.44699 | 419 ft | 142 kts | 67° |
| 2026-05-05 17:01 | 48.44448 | -4.43309 | 306 ft | 131 kts | 67° |
| 2026-05-05 17:01 | 48.44683 | -4.42319 | 308 ft | 54 kts | 72° |
| 2026-05-05 17:01 | 48.44665 | -4.42152 | 311 ft | 12 kts | 155° |
| 2026-05-05 17:01 | 48.44589 | -4.42111 | 310 ft | 8 kts | 163° |
| 2026-05-05 17:02 | 48.44549 | -4.42092 | 310 ft | 4 kts | 165° |
| 2026-05-05 17:02 | 48.44542 | -4.42090 | 310 ft | 0 kts | 169° |
| 2026-05-05 17:02 | 48.44511 | -4.42078 | 311 ft | 6 kts | 163° |
| 2026-05-05 17:02 | 48.44475 | -4.42060 | 311 ft | 5 kts | 161° |
| 2026-05-05 17:03 | 48.44448 | -4.42046 | 311 ft | 3 kts | 162° |
| 2026-05-05 17:03 | 48.44431 | -4.42037 | 311 ft | 2 kts | 161° |
| 2026-05-05 17:03 | 48.44424 | -4.42034 | 311 ft | 0 kts | 161° |